Terminal Aerodrome Forecast
Issued by NWS

Home | Current Version | Previous Version | Text Only | Print | Product List | Glossary On
Versions: 1 2 3 4 5 6 7 8 9 10 11 12
000
FTAK31 PAJN 300500
TAFAPG
TAF
PAPG 300540Z 3006/0106 VRB03KT P6SM SCT025 BKN050
     FM301100 00000KT P6SM VCSH BKN007 OVC020
     FM301800 VRB03KT P6SM VCSH SCT010 BKN030 BKN050
     FM302100 06005KT P6SM VCSH SCT025 BKN050
      AMD LTD TO CLD VIS AND WIND 3006/3015=

USA.gov is the U.S. government's official web portal to all federal, state and local government web resources and services.